Flight Track Log - Related Links

Times and Time Zones

All times are in EDT time to prevent confusion due to time zone crossing. See the ASQ4267 flight status page for this flight to view local times or setup timezone preferences in your user account.

Time Position Orientation Groundspeed Altitude Reporting Facility
EDT Latitude Longitude Course Direction KTS MPH feet Rate Location/Type
Mon 10:36:15 AM 42.9333 -87.9167 102° East 177 204 1,200  Level KMKE
Mon 10:41:53 AM 42.8669 -87.4917 81° East 321 369 10,600 1,568 Climbing Chicago Center
Mon 10:42:53 AM 42.8853 -87.3408 81° East 347 399 11,600 950 Climbing Chicago Center
Mon 10:43:53 AM 42.8997 -87.2128 79° East 357 411 12,500 1,100 Climbing Chicago Center
Mon 10:44:53 AM 42.9197 -87.0675 81° East 376 433 13,800 1,300 Climbing Chicago Center
Mon 10:45:53 AM 42.9375 -86.9194 83° East 387 445 15,100 1,250 Climbing Chicago Center
Mon 10:46:53 AM 42.9511 -86.7686 83° East 393 452 16,300 1,150 Climbing Chicago Center
Mon 10:47:53 AM 42.9642 -86.6206 83° East 393 452 17,400 1,150 Climbing Chicago Center
Mon 10:48:53 AM 42.9772 -86.4722 82° East 393 452 18,600 1,150 Climbing Chicago Center
Mon 10:49:53 AM 42.9939 -86.3042 84° East 393 452 19,700 1,100 Climbing Chicago Center
Mon 10:50:53 AM 43.0064 -86.1472 85° East 399 459 20,800 1,050 Climbing Chicago Center
Mon 10:51:53 AM 43.0147 -86.0047 81° East 404 465 21,800 1,000 Climbing Chicago Center
Mon 10:52:53 AM 43.0328 -85.8419 83° East 419 482 22,800 1,050 Climbing Chicago Center
Mon 10:53:53 AM 43.0467 -85.6847 84° East 425 489 23,900 1,078 Climbing Chicago Center
Mon 10:55:40 AM 43.0689 -85.3869 84° East 423 487 25,800 1,006 Climbing Cleveland Center
Mon 10:56:40 AM 43.0817 -85.2258 83° East 423 487 26,700 900 Climbing Cleveland Center
Mon 10:57:40 AM 43.0964 -85.0647 84° East 428 493 27,600 850 Climbing Cleveland Center
Mon 10:58:40 AM 43.1089 -84.9006 85° East 428 493 28,400 850 Climbing Cleveland Center
Mon 10:59:40 AM 43.1192 -84.7333 84° East 428 493 29,300 800 Climbing Cleveland Center
Mon 11:00:40 AM 43.1306 -84.5889 86° East 428 493 30,000 800 Climbing Cleveland Center
Mon 11:01:40 AM 43.1383 -84.4244 82° East 428 493 30,900 900 Climbing Cleveland Center
Mon 11:02:40 AM 43.1567 -84.2406 85° East 433 498 31,800 900 Climbing Cleveland Center
Mon 11:03:40 AM 43.1681 -84.0761 84° East 433 498 32,700 900 Climbing Cleveland Center
Mon 11:04:40 AM 43.1814 -83.9058 86° East 438 504 33,600 900 Climbing Cleveland Center
Mon 11:05:40 AM 43.1903 -83.7411 85° East 438 504 34,500 700 Climbing Cleveland Center
Mon 11:06:40 AM 43.2008 -83.5736 85° East 443 510 35,000 250 Climbing Cleveland Center
Mon 11:07:40 AM 43.2114 -83.4033 85° East 443 510 35,000  Level Cleveland Center
Mon 11:08:40 AM 43.2217 -83.2383 84° East 455 524 35,000  Level Cleveland Center
Mon 11:09:40 AM 43.2361 -83.0594 87° East 468 539 35,000  Level Cleveland Center
Mon 11:10:40 AM 43.2439 -82.8803 87° East 468 539 35,000  Level Cleveland Center
Mon 11:11:40 AM 43.2514 -82.7039 104° East 460 529 35,000  Level Cleveland Center
Mon 11:12:36 AM 43.2167 -82.5167 97° East 470 541 35,000  Level Toronto Center
Mon 11:13:36 AM 43.2000 -82.3333 105° East 470 541 35,000  Level Toronto Center
Mon 11:14:36 AM 43.1667 -82.1667 104° East 470 541 35,000  Level Toronto Center
Mon 11:15:36 AM 43.1333 -81.9833 90° East 460 529 35,000  Level Toronto Center
Mon 11:16:36 AM 43.1333 -81.8000 107° East 460 529 35,000  Level Toronto Center
Mon 11:17:36 AM 43.1000 -81.6500 104° East 460 529 35,000  Level Toronto Center
Mon 11:18:36 AM 43.0667 -81.4667 98° East 460 529 35,000  Level Toronto Center
Mon 11:19:36 AM 43.0500 -81.3000 104° East 460 529 35,000  Level Toronto Center
Mon 11:20:36 AM 43.0167 -81.1167 90° East 470 541 35,000  Level Toronto Center
Mon 11:21:36 AM 43.0167 -80.9500 90° East 460 529 35,000  Level Toronto Center
Mon 11:22:36 AM 43.0167 -80.7667 90° East 470 541 35,000  Level Toronto Center
Mon 11:23:36 AM 43.0167 -80.5833 97° East 470 541 35,000  Level Toronto Center
Mon 11:24:36 AM 43.0000 -80.4000 90° East 470 541 35,000  Level Toronto Center
Mon 11:25:36 AM 43.0000 -80.2333 97° East 470 541 35,000  Level Toronto Center
Mon 11:26:36 AM 42.9833 -80.0500 90° East 470 541 35,000 -400 Level Toronto Center
Mon 11:27:36 AM 42.9833 -79.8667 98° East 470 541 34,200 -850 Descending Toronto Center
Mon 11:28:36 AM 42.9667 -79.7000 90° East 470 541 33,300 -393 Descending Toronto Center
Mon 11:30:39 AM 42.9644 -79.3547 93° East 465 535 33,000 -98 Descending Cleveland Center
Mon 11:31:39 AM 42.9558 -79.1564 94° East 465 535 33,000  Level Cleveland Center
Mon 11:32:39 AM 42.9472 -78.9864 94° East 459 528 33,000  Level Cleveland Center
Mon 11:33:39 AM 42.9389 -78.8278 95° East 459 528 33,000 -450 Level Cleveland Center
Mon 11:34:39 AM 42.9278 -78.6581 98° East 459 528 32,100 -1,000 Descending Cleveland Center
Mon 11:35:39 AM 42.9078 -78.4714 96° East 459 528 31,000 -850 Descending Cleveland Center
Mon 11:36:39 AM 42.8942 -78.3019 100° East 459 528 30,400 -800 Descending Cleveland Center
Mon 11:37:39 AM 42.8742 -78.1411 97° East 441 507 29,400 -950 Descending Cleveland Center
Mon 11:38:39 AM 42.8608 -78.0028 98° East 421 484 28,500 -900 Descending Cleveland Center
Mon 11:39:39 AM 42.8422 -77.8336 98° East 414 476 27,600 -750 Descending Cleveland Center
Mon 11:40:39 AM 42.8261 -77.6872 101° East 402 463 27,000 -300 Descending Cleveland Center
Mon 11:41:39 AM 42.8036 -77.5353 106° East 402 463 27,000  Level Cleveland Center
Mon 11:43:36 AM 42.7333 -77.2000 90° East 410 472 27,000  Level Toronto Center
Mon 11:44:38 AM 42.7328 -77.0881 102° East 406 467 27,000  Level Boston Center
Mon 11:45:38 AM 42.7094 -76.9364 102° East 400 460 27,000  Level Boston Center
Mon 11:46:38 AM 42.6861 -76.7878 103° East 394 453 27,000  Level Boston Center
Mon 11:47:38 AM 42.6603 -76.6419 118° Southeast 401 461 27,000  Level Boston Center
Mon 11:48:38 AM 42.6069 -76.5083 121° Southeast 401 461 27,000  Level Boston Center
Mon 11:49:38 AM 42.5489 -76.3750 120° Southeast 406 467 27,000  Level Boston Center
Mon 11:50:38 AM 42.4950 -76.2503 123° Southeast 411 473 27,000 -300 Level Boston Center
Mon 11:51:38 AM 42.4267 -76.1083 121° Southeast 417 480 26,400 -800 Descending Boston Center
Mon 11:52:38 AM 42.3703 -75.9814 123° Southeast 417 480 25,400 -1,050 Descending Boston Center
Mon 11:53:38 AM 42.3114 -75.8572 120° Southeast 403 464 24,300 -1,050 Descending Boston Center
Mon 11:54:38 AM 42.2606 -75.7394 122° Southeast 403 464 23,300 -1,050 Descending Boston Center
Mon 11:55:38 AM 42.1997 -75.6072 122° Southeast 403 464 22,200 -1,050 Descending Boston Center
Mon 11:56:38 AM 42.1408 -75.4808 122° Southeast 403 464 21,200 -600 Descending Boston Center
Mon 11:57:38 AM 42.0836 -75.3578 119° Southeast 398 458 21,000 -750 Descending Boston Center
Mon 11:58:38 AM 42.0344 -75.2383 118° Southeast 386 444 19,700 -1,450 Descending Boston Center
Mon 11:59:38 AM 41.9814 -75.1044 116° Southeast 376 433 18,100 -850 Descending Boston Center
Mon 12:00:38 PM 41.9383 -74.9856 117° Southeast 361 415 18,000 -50 Descending Boston Center
Mon 12:01:38 PM 41.8931 -74.8664 118° Southeast 356 410 18,000 -950 Level Boston Center
Mon 12:02:38 PM 41.8475 -74.7506 117° Southeast 356 410 16,100 -1,850 Descending Boston Center
Mon 12:03:38 PM 41.8039 -74.6375 134° Southeast 356 410 14,300 -1,950 Descending Boston Center
Mon 12:04:38 PM 41.7431 -74.5519 139° Southeast 330 380 12,200 -1,700 Descending Boston Center
Mon 12:05:38 PM 41.6736 -74.4717 142° Southeast 329 379 10,900 -1,250 Descending Boston Center
Mon 12:06:38 PM 41.6039 -74.4000 151° Southeast 323 372 9,700 -1,150 Descending Boston Center
Mon 12:07:38 PM 41.5297 -74.3450 196° South 317 365 8,600 -1,200 Descending Boston Center
Mon 12:08:38 PM 41.4500 -74.3761 197° South 282 325 7,300 -691 Descending Boston Center
Mon 12:09:57 PM 41.3500 -74.4167 197° South 283 326 7,000 -129 Descending New York TRACON
Mon 12:10:57 PM 41.2667 -74.4500 191° South 287 330 7,000 -100 Level New York TRACON
Mon 12:11:57 PM 41.2000 -74.4667 180° South 284 327 6,800 -500 Descending New York TRACON
Mon 12:12:57 PM 41.1167 -74.4667 159° South 279 321 6,000 -632 Descending New York TRACON
Mon 12:13:51 PM 41.0500 -74.4333 135° Southeast 278 320 5,600 -500 Descending New York TRACON
Mon 12:14:57 PM 41.0000 -74.3667 118° Southeast 277 319 5,000 -476 Descending New York TRACON
Mon 12:15:57 PM 40.9667 -74.2833 102° East 262 302 4,600 -500 Descending New York TRACON
Mon 12:16:57 PM 40.9500 -74.1833 108° East 240 276 4,000 -300 Descending New York TRACON
Mon 12:17:57 PM 40.9333 -74.1167 131° Southeast 228 262 4,000 -450 Level New York TRACON
Mon 12:18:57 PM 40.9000 -74.0667 180° South 213 245 3,100 -526 Descending New York TRACON
Mon 12:19:51 PM 40.8500 -74.0667 207° Southwest 199 229 3,000 -474 Descending New York TRACON
Mon 12:20:51 PM 40.8000 -74.1000 207° Southwest 198 228 2,200 -900 Descending New York TRACON
Mon 12:21:51 PM 40.7500 -74.1333 201° Southwest 183 211 1,200 -900 Descending New York TRACON
Mon 12:22:51 PM 40.7167 -74.1500 256° West 141 162 400 -800 Descending New York TRACON
Mon 12:30:32 PM 40.6581 -74.4510 256° West  Level FlightAware Approximate

Login

Don't have an account? Register now (free) for customized features, flight alerts, and more!